createdAt,value
2018-06-09T00:01:36.966Z,74.00
2018-06-09T00:04:04.205Z,70.97
2018-06-09T00:06:31.435Z,74.07
2018-06-09T00:08:58.660Z,76.37
2018-06-09T00:11:25.889Z,73.10
2018-06-09T00:13:53.101Z,73.27
2018-06-09T00:16:20.329Z,73.20
2018-06-09T00:18:47.550Z,79.43
2018-06-09T00:21:14.766Z,71.20
2018-06-09T00:23:42.032Z,71.17
2018-06-09T00:26:09.260Z,70.07
2018-06-09T00:28:36.472Z,68.27
2018-06-09T00:31:03.684Z,71.40
2018-06-09T00:33:30.909Z,67.50
2018-06-09T00:35:58.139Z,68.43
2018-06-09T00:38:25.361Z,66.13
2018-06-09T00:40:52.607Z,62.17
2018-06-09T00:43:19.845Z,69.80
2018-06-09T00:45:47.107Z,72.27
2018-06-09T00:48:14.341Z,74.27
2018-06-09T00:50:41.552Z,69.43
2018-06-09T00:53:08.776Z,62.80
2018-06-09T00:55:35.987Z,65.67
2018-06-09T00:58:03.226Z,64.50
2018-06-09T01:00:30.441Z,66.40
2018-06-09T01:02:57.661Z,67.37
2018-06-09T01:05:24.884Z,64.87
2018-06-09T01:07:52.104Z,59.60
2018-06-09T01:10:19.330Z,62.67
2018-06-09T01:12:46.534Z,63.50
2018-06-09T01:15:13.737Z,62.03
2018-06-09T01:17:40.934Z,61.43
2018-06-09T01:20:08.236Z,60.50
2018-06-09T01:22:35.465Z,65.70
2018-06-09T01:25:02.698Z,66.37
2018-06-09T01:27:29.930Z,65.17
2018-06-09T01:29:57.145Z,70.10
2018-06-09T01:32:24.348Z,68.93
2018-06-09T01:34:51.554Z,75.90
2018-06-09T01:37:18.769Z,71.17
2018-06-09T01:39:45.976Z,72.77
2018-06-09T01:42:13.182Z,72.50
2018-06-09T01:44:40.405Z,77.70
2018-06-09T01:47:07.615Z,79.93
2018-06-09T01:49:34.832Z,81.37
2018-06-09T01:52:02.042Z,88.10
2018-06-09T01:54:29.284Z,86.17
2018-06-09T01:56:56.480Z,92.30
2018-06-09T01:59:23.688Z,97.20
2018-06-09T02:01:50.884Z,92.07
2018-06-09T02:04:18.084Z,94.13
2018-06-09T02:06:45.273Z,94.60
2018-06-09T02:09:12.485Z,83.83
2018-06-09T02:11:39.689Z,82.70
2018-06-09T02:14:06.912Z,89.30
2018-06-09T02:16:34.130Z,84.60
2018-06-09T02:19:01.344Z,88.97
2018-06-09T02:21:28.553Z,82.30
2018-06-09T02:23:55.789Z,79.23
2018-06-09T02:26:22.993Z,81.10
2018-06-09T02:28:50.193Z,77.53
2018-06-09T02:31:17.389Z,75.57
2018-06-09T02:33:44.601Z,87.07
2018-06-09T02:36:11.805Z,86.50
2018-06-09T02:38:39.021Z,88.77
2018-06-09T02:41:06.242Z,85.27
2018-06-09T02:43:33.474Z,90.50
2018-06-09T02:46:00.682Z,94.87
2018-06-09T02:48:27.880Z,91.57
2018-06-09T02:50:55.090Z,92.77
2018-06-09T02:53:22.294Z,92.33
2018-06-09T02:55:49.505Z,89.50
2018-06-09T02:58:16.708Z,99.13
2018-06-09T03:00:43.921Z,88.20
2018-06-09T03:03:11.185Z,88.90
2018-06-09T03:05:38.414Z,82.37
2018-06-09T03:08:05.615Z,78.17
2018-06-09T03:10:32.826Z,73.80
2018-06-09T03:13:00.433Z,68.30
2018-06-09T03:15:27.654Z,67.90
2018-06-09T03:17:54.892Z,74.30
2018-06-09T03:20:22.107Z,67.07
2018-06-09T03:22:49.313Z,65.47
2018-06-09T03:25:16.522Z,64.87
2018-06-09T03:27:43.728Z,65.00
2018-06-09T03:30:10.949Z,60.67
2018-06-09T03:32:38.736Z,59.13
2018-06-09T03:35:06.730Z,60.73
2018-06-09T03:37:34.584Z,59.27
2018-06-09T03:40:01.830Z,56.30
2018-06-09T03:42:29.237Z,51.97
2018-06-09T03:44:56.487Z,51.20
2018-06-09T03:47:23.685Z,51.30
2018-06-09T03:49:50.904Z,56.00
2018-06-09T03:52:18.112Z,53.30
2018-06-09T03:54:45.482Z,49.60
2018-06-09T03:57:12.694Z,48.57
2018-06-09T03:59:39.901Z,49.23
2018-06-09T04:02:07.109Z,48.37
2018-06-09T04:04:34.305Z,47.27
2018-06-09T04:07:01.518Z,51.97
2018-06-09T04:09:28.716Z,47.97
2018-06-09T04:11:55.941Z,44.30
2018-06-09T04:14:23.141Z,45.70
2018-06-09T04:16:50.356Z,45.27
2018-06-09T04:19:17.712Z,46.30
2018-06-09T04:21:44.978Z,41.93
2018-06-09T04:24:12.172Z,41.90
2018-06-09T04:26:39.382Z,42.40
2018-06-09T04:29:06.590Z,45.37
2018-06-09T04:31:33.818Z,44.87
2018-06-09T04:34:01.329Z,42.70
2018-06-09T04:36:28.522Z,40.90
2018-06-09T04:38:55.716Z,39.77
2018-06-09T04:41:22.929Z,41.37
2018-06-09T04:43:50.134Z,38.40
2018-06-09T04:46:17.337Z,39.90
2018-06-09T04:48:44.545Z,41.50
2018-06-09T04:51:11.787Z,40.77
2018-06-09T04:53:38.992Z,44.50
2018-06-09T04:56:06.504Z,42.87
2018-06-09T04:58:33.728Z,41.37
2018-06-09T05:01:01.216Z,43.03
2018-06-09T05:03:28.579Z,42.03
2018-06-09T05:05:55.811Z,38.53
2018-06-09T05:08:23.078Z,42.00
2018-06-09T05:10:50.286Z,41.27
2018-06-09T05:13:17.533Z,41.47
2018-06-09T05:15:44.851Z,38.27
2018-06-09T05:18:14.013Z,34.33
2018-06-09T05:20:41.229Z,36.40
2018-06-09T05:23:08.438Z,34.90
2018-06-09T05:25:35.712Z,34.30
2018-06-09T05:28:02.964Z,39.70
2018-06-09T05:30:30.159Z,38.60
2018-06-09T05:32:57.401Z,37.30
2018-06-09T05:35:24.660Z,37.13
2018-06-09T05:37:51.878Z,35.87
2018-06-09T05:40:19.111Z,34.77
2018-06-09T05:42:46.349Z,36.63
2018-06-09T05:45:13.553Z,34.43
2018-06-09T05:47:40.764Z,36.30
2018-06-09T05:50:08.007Z,37.60
2018-06-09T05:52:35.228Z,37.37
2018-06-09T05:55:02.472Z,37.07
2018-06-09T05:57:29.694Z,34.50
2018-06-09T05:59:57.004Z,34.00
2018-06-09T06:02:24.253Z,35.63
2018-06-09T06:04:51.673Z,35.40
2018-06-09T06:07:18.901Z,34.23
2018-06-09T06:09:46.132Z,34.50
2018-06-09T06:12:13.370Z,33.43
2018-06-09T06:14:40.799Z,32.17
2018-06-09T06:17:08.005Z,33.27
2018-06-09T06:19:35.213Z,30.40
2018-06-09T06:22:02.483Z,31.80
2018-06-09T06:24:29.734Z,32.40
2018-06-09T06:26:56.934Z,35.77
2018-06-09T06:29:24.136Z,31.03
2018-06-09T06:31:51.357Z,33.90
2018-06-09T06:34:18.545Z,31.23
2018-06-09T06:36:45.762Z,30.80
2018-06-09T06:39:12.980Z,30.57
2018-06-09T06:41:40.197Z,31.43
2018-06-09T06:44:07.460Z,32.37
2018-06-09T06:46:39.256Z,32.30
2018-06-09T06:49:06.586Z,30.27
2018-06-09T06:51:33.849Z,32.90
2018-06-09T06:54:01.128Z,30.07
2018-06-09T06:56:28.330Z,30.20
2018-06-09T06:58:55.532Z,31.60
2018-06-09T07:01:22.741Z,32.90
2018-06-09T07:03:49.932Z,32.10
2018-06-09T07:06:17.179Z,31.47
2018-06-09T07:08:44.385Z,34.50
2018-06-09T07:11:11.608Z,29.97
2018-06-09T07:13:38.814Z,31.13
2018-06-09T07:16:06.025Z,33.20
2018-06-09T07:18:33.232Z,33.57
2018-06-09T07:21:00.432Z,34.20
2018-06-09T07:23:27.628Z,35.83
2018-06-09T07:25:54.893Z,33.87
2018-06-09T07:28:22.095Z,33.07
2018-06-09T07:30:49.313Z,33.40
2018-06-09T07:33:16.553Z,29.53
2018-06-09T07:35:43.767Z,30.90
2018-06-09T07:38:10.970Z,28.63
2018-06-09T07:40:38.232Z,30.33
2018-06-09T07:43:05.436Z,31.40
2018-06-09T07:45:32.644Z,32.67
2018-06-09T07:47:59.894Z,31.50
2018-06-09T07:50:28.744Z,29.53
2018-06-09T07:52:55.976Z,30.10
2018-06-09T07:55:23.268Z,31.43
2018-06-09T07:57:50.452Z,30.47
2018-06-09T08:00:17.659Z,31.33
2018-06-09T08:02:44.853Z,29.50
2018-06-09T08:05:12.073Z,27.23
2018-06-09T08:07:39.289Z,24.77
2018-06-09T08:10:06.528Z,24.63
2018-06-09T08:12:33.736Z,26.60
2018-06-09T08:15:00.961Z,22.10
2018-06-09T08:17:28.175Z,23.03
2018-06-09T08:19:55.379Z,21.90
2018-06-09T08:22:22.600Z,21.30
2018-06-09T08:24:49.801Z,19.73
2018-06-09T08:27:17.021Z,21.37
2018-06-09T08:29:44.218Z,20.80
2018-06-09T08:32:11.446Z,24.20
2018-06-09T08:34:38.768Z,23.17
2018-06-09T08:37:06.017Z,24.30
2018-06-09T08:39:33.212Z,21.63
2018-06-09T08:42:00.469Z,23.27
2018-06-09T08:44:27.637Z,26.00
2018-06-09T08:46:55.489Z,23.67
2018-06-09T08:49:22.696Z,23.27
2018-06-09T08:51:49.905Z,22.40
2018-06-09T08:54:17.150Z,21.17
2018-06-09T08:56:44.361Z,21.53
2018-06-09T08:59:11.563Z,20.73
2018-06-09T09:01:38.782Z,23.30
2018-06-09T09:04:05.994Z,22.03
2018-06-09T09:06:33.209Z,20.60
2018-06-09T09:09:00.437Z,21.90
2018-06-09T09:11:27.659Z,22.33
2018-06-09T09:13:54.881Z,21.60
2018-06-09T09:16:22.084Z,20.60
2018-06-09T09:18:49.300Z,19.50
2018-06-09T09:21:16.589Z,20.30
2018-06-09T09:23:43.808Z,21.60
2018-06-09T09:26:11.042Z,20.03
2018-06-09T09:28:38.257Z,22.80
2018-06-09T09:31:05.668Z,22.43
2018-06-09T09:33:32.872Z,22.57
2018-06-09T09:36:00.075Z,22.40
2018-06-09T09:38:27.284Z,23.30
2018-06-09T09:40:54.501Z,22.33
2018-06-09T09:43:21.908Z,24.03
2018-06-09T09:45:49.117Z,22.97
2018-06-09T09:48:16.337Z,20.33
2018-06-09T09:50:43.552Z,20.10
2018-06-09T09:53:10.769Z,19.80
2018-06-09T09:55:37.980Z,19.60
2018-06-09T09:58:05.223Z,20.90
2018-06-09T10:00:36.373Z,20.20
2018-06-09T10:03:03.732Z,18.10
2018-06-09T10:05:30.970Z,18.00
2018-06-09T10:07:58.181Z,16.48
2018-06-09T10:10:25.416Z,17.25
2018-06-09T10:12:52.620Z,15.70
2018-06-09T10:15:19.837Z,15.88
2018-06-09T10:17:47.080Z,15.28
2018-06-09T10:20:14.301Z,14.98
2018-06-09T10:22:41.505Z,15.90
2018-06-09T10:25:08.725Z,15.60
2018-06-09T10:27:35.924Z,15.68
2018-06-09T10:30:03.212Z,16.65
2018-06-09T10:32:30.417Z,16.40
2018-06-09T10:34:57.629Z,14.73
2018-06-09T10:37:24.865Z,13.40
2018-06-09T10:39:52.068Z,14.80
2018-06-09T10:42:19.277Z,14.28
2018-06-09T10:44:46.494Z,15.13
2018-06-09T10:47:13.705Z,13.53
2018-06-09T10:49:40.912Z,14.50
2018-06-09T10:52:08.131Z,15.45
2018-06-09T10:54:35.336Z,14.03
2018-06-09T10:57:02.593Z,13.43
2018-06-09T10:59:29.849Z,13.25
2018-06-09T11:01:57.056Z,13.62
2018-06-09T11:04:24.290Z,14.15
2018-06-09T11:06:51.510Z,13.70
2018-06-09T11:09:18.719Z,13.80
2018-06-09T11:11:45.941Z,13.80
2018-06-09T11:14:13.145Z,12.53
2018-06-09T11:16:40.389Z,15.80
2018-06-09T11:19:07.582Z,15.50
2018-06-09T11:21:34.786Z,13.58
2018-06-09T11:24:01.998Z,13.08
2018-06-09T11:26:29.205Z,13.68
2018-06-09T11:28:56.388Z,13.13
2018-06-09T11:31:23.605Z,14.73
2018-06-09T11:33:50.804Z,13.80
2018-06-09T11:36:18.032Z,13.13
2018-06-09T11:38:45.240Z,12.00
2018-06-09T11:41:12.460Z,12.00
2018-06-09T11:43:39.672Z,12.05
2018-06-09T11:46:06.909Z,11.35
2018-06-09T11:48:34.109Z,14.68
2018-06-09T11:51:01.352Z,12.78
2018-06-09T11:53:28.560Z,14.85
2018-06-09T11:55:55.774Z,14.40
2018-06-09T11:58:22.992Z,14.20
2018-06-09T12:00:50.202Z,13.75
2018-06-09T12:03:17.440Z,14.20
2018-06-09T12:05:44.658Z,12.15
2018-06-09T12:08:11.873Z,12.10
2018-06-09T12:10:39.076Z,12.18
2018-06-09T12:13:06.292Z,10.30
2018-06-09T12:15:33.512Z,12.63
2018-06-09T12:18:00.712Z,12.50
2018-06-09T12:20:27.932Z,12.50
2018-06-09T12:22:55.160Z,11.38
2018-06-09T12:25:22.360Z,12.90
2018-06-09T12:27:49.564Z,11.85
2018-06-09T12:30:16.793Z,11.33
2018-06-09T12:32:44.012Z,12.33
2018-06-09T12:35:11.212Z,13.03
2018-06-09T12:37:38.440Z,14.13
2018-06-09T12:40:05.688Z,13.95
2018-06-09T12:42:32.871Z,14.20
2018-06-09T12:45:00.095Z,13.90
2018-06-09T12:47:27.311Z,13.48
2018-06-09T12:49:54.530Z,12.47
2018-06-09T12:52:21.760Z,11.68
2018-06-09T12:54:48.994Z,12.60
2018-06-09T12:57:16.196Z,11.50
2018-06-09T12:59:43.413Z,11.05
2018-06-09T13:02:10.693Z,10.98
2018-06-09T13:04:37.909Z,11.38
2018-06-09T13:07:05.489Z,9.78
2018-06-09T13:09:32.704Z,10.23
2018-06-09T13:11:59.928Z,10.68
2018-06-09T13:14:27.129Z,10.82
2018-06-09T13:16:55.034Z,10.53
2018-06-09T13:19:22.269Z,9.60
2018-06-09T13:21:49.484Z,10.32
2018-06-09T13:24:16.690Z,10.03
2018-06-09T13:26:43.922Z,10.63
2018-06-09T13:29:11.129Z,9.30
2018-06-09T13:31:38.345Z,9.68
2018-06-09T13:34:05.573Z,9.58
2018-06-09T13:36:32.772Z,9.03
2018-06-09T13:38:59.986Z,8.68
2018-06-09T13:41:27.231Z,8.53
2018-06-09T13:43:54.445Z,8.53
2018-06-09T13:46:21.689Z,8.35
2018-06-09T13:48:48.911Z,9.50
2018-06-09T13:51:16.121Z,9.65
2018-06-09T13:53:43.336Z,9.75
2018-06-09T13:56:10.569Z,9.50
2018-06-09T13:58:37.791Z,9.60
2018-06-09T14:01:05.167Z,8.05
2018-06-09T14:03:32.371Z,9.53
2018-06-09T14:05:59.580Z,9.60
2018-06-09T14:08:26.797Z,8.73
2018-06-09T14:10:54.021Z,10.18
2018-06-09T14:13:21.261Z,11.05
2018-06-09T14:15:48.454Z,10.15
2018-06-09T14:18:15.683Z,11.08
2018-06-09T14:20:42.887Z,11.20
2018-06-09T14:23:10.100Z,11.95
2018-06-09T14:25:37.320Z,11.37
2018-06-09T14:28:04.536Z,11.83
2018-06-09T14:30:31.752Z,11.40
2018-06-09T14:32:58.970Z,12.97
2018-06-09T14:35:26.241Z,13.80
2018-06-09T14:37:53.440Z,13.67
2018-06-09T14:40:20.888Z,12.70
2018-06-09T14:42:48.093Z,13.33
2018-06-09T14:45:15.309Z,14.27
2018-06-09T14:47:42.533Z,13.70
2018-06-09T14:50:09.740Z,13.67
2018-06-09T14:52:36.980Z,13.70
2018-06-09T14:55:04.211Z,14.03
2018-06-09T14:57:31.552Z,15.33
2018-06-09T14:59:58.772Z,16.03
2018-06-09T15:02:26.052Z,16.10
2018-06-09T15:04:53.252Z,18.20
2018-06-09T15:07:20.470Z,20.27
2018-06-09T15:09:47.753Z,19.70
2018-06-09T15:12:14.968Z,14.20
2018-06-09T15:14:42.176Z,13.73
2018-06-09T15:17:09.385Z,14.27
2018-06-09T15:19:36.624Z,12.47
2018-06-09T15:22:03.805Z,11.80
2018-06-09T15:24:31.022Z,11.03
2018-06-09T15:26:58.226Z,10.40
2018-06-09T15:29:25.437Z,11.13
2018-06-09T15:31:52.656Z,10.63
2018-06-09T15:34:19.869Z,11.73
2018-06-09T15:36:47.273Z,12.90
2018-06-09T15:39:14.520Z,12.43
2018-06-09T15:41:41.769Z,13.93
2018-06-09T15:44:08.985Z,16.00
2018-06-09T15:46:36.234Z,17.90
2018-06-09T15:49:03.433Z,17.43
2018-06-09T15:51:30.661Z,19.10
2018-06-09T15:53:57.861Z,18.70
2018-06-09T15:56:25.177Z,20.90
2018-06-09T15:58:52.389Z,18.17
2018-06-09T16:01:19.604Z,19.17
2018-06-09T16:03:46.838Z,18.87
2018-06-09T16:06:14.067Z,15.20
2018-06-09T16:08:41.308Z,16.10
2018-06-09T16:11:08.536Z,15.60
2018-06-09T16:13:35.809Z,14.73
2018-06-09T16:16:03.030Z,15.20
2018-06-09T16:18:30.237Z,16.87
2018-06-09T16:20:57.436Z,15.43
2018-06-09T16:23:24.632Z,17.40
2018-06-09T16:25:51.834Z,14.80
2018-06-09T16:28:19.041Z,15.20
2018-06-09T16:30:46.264Z,15.23
2018-06-09T16:33:13.478Z,14.87
2018-06-09T16:35:40.902Z,15.87
2018-06-09T16:38:08.097Z,15.87
2018-06-09T16:40:35.306Z,16.10
2018-06-09T16:43:02.501Z,15.30
2018-06-09T16:45:29.732Z,14.50
2018-06-09T16:47:56.945Z,12.97
2018-06-09T16:50:26.282Z,14.30
2018-06-09T16:52:53.492Z,16.00
2018-06-09T16:55:20.700Z,14.50
2018-06-09T16:57:47.908Z,14.33
2018-06-09T17:00:15.113Z,14.57
2018-06-09T17:02:42.321Z,13.57
2018-06-09T17:05:09.526Z,13.90
2018-06-09T17:07:36.732Z,14.30
2018-06-09T17:10:03.952Z,15.53
2018-06-09T17:12:31.162Z,13.90
2018-06-09T17:14:58.436Z,15.70
2018-06-09T17:17:25.636Z,15.40
2018-06-09T17:19:52.845Z,14.73
2018-06-09T17:22:20.062Z,17.20
2018-06-09T17:24:47.261Z,15.20
2018-06-09T17:27:14.468Z,16.20
2018-06-09T17:29:41.673Z,15.93
2018-06-09T17:32:08.880Z,16.23
2018-06-09T17:34:36.071Z,18.57
2018-06-09T17:37:03.301Z,18.90
2018-06-09T17:39:30.505Z,16.43
2018-06-09T17:41:57.696Z,17.10
2018-06-09T17:44:24.880Z,18.40
2018-06-09T17:46:52.096Z,18.20
2018-06-09T17:49:19.291Z,22.13
2018-06-09T17:51:46.615Z,52.07
2018-06-09T17:54:13.837Z,42.33
2018-06-09T17:56:41.037Z,16.70
2018-06-09T17:59:08.257Z,15.00
2018-06-09T18:01:35.469Z,11.40
2018-06-09T18:04:13.800Z,11.80
2018-06-09T18:06:41.024Z,10.90
2018-06-09T18:09:08.281Z,10.97
2018-06-09T18:11:35.624Z,10.10
2018-06-09T18:14:02.901Z,12.57
2018-06-09T18:16:30.108Z,11.90
2018-06-09T18:18:57.319Z,10.90
2018-06-09T18:21:24.513Z,10.87
2018-06-09T18:23:51.710Z,10.87
2018-06-09T18:26:18.907Z,11.03
2018-06-09T18:28:46.133Z,10.60
2018-06-09T18:31:14.130Z,10.93
2018-06-09T18:33:41.384Z,15.57
2018-06-09T18:36:08.548Z,17.07
2018-06-09T18:38:35.780Z,16.73
2018-06-09T18:41:02.995Z,16.53
2018-06-09T18:43:30.275Z,15.37
2018-06-09T18:45:57.488Z,19.90
2018-06-09T18:48:24.694Z,23.53
2018-06-09T18:50:51.900Z,27.80
2018-06-09T18:53:19.109Z,29.60
2018-06-09T18:55:46.313Z,28.80
2018-06-09T18:58:13.525Z,31.43
2018-06-09T19:00:40.729Z,34.50
2018-06-09T19:03:07.941Z,30.20
2018-06-09T19:05:35.151Z,32.83
2018-06-09T19:08:02.373Z,34.50
2018-06-09T19:10:30.054Z,33.00
2018-06-09T19:12:57.284Z,37.60
2018-06-09T19:15:24.573Z,34.97
2018-06-09T19:17:51.790Z,36.30
2018-06-09T19:20:19.066Z,38.03
2018-06-09T19:22:46.690Z,38.30
2018-06-09T19:25:13.901Z,35.77
2018-06-09T19:27:41.121Z,35.87
2018-06-09T19:30:08.321Z,34.90
2018-06-09T19:32:35.509Z,31.97
2018-06-09T19:35:02.825Z,31.60
2018-06-09T19:37:30.101Z,38.07
2018-06-09T19:39:57.325Z,35.33
2018-06-09T19:42:24.580Z,37.93
2018-06-09T19:44:51.884Z,36.07
2018-06-09T19:47:19.418Z,32.17
2018-06-09T19:49:46.635Z,32.97
2018-06-09T19:52:13.845Z,31.13
2018-06-09T19:54:41.057Z,30.90
2018-06-09T19:57:08.270Z,22.20
2018-06-09T19:59:35.481Z,20.87
2018-06-09T20:02:02.744Z,17.03
2018-06-09T20:04:29.961Z,17.27
2018-06-09T20:06:57.163Z,31.93
2018-06-09T20:09:24.372Z,25.73
2018-06-09T20:11:51.574Z,17.40
2018-06-09T20:14:18.811Z,28.97
2018-06-09T20:16:46.020Z,44.90
2018-06-09T20:19:13.294Z,37.10
2018-06-09T20:21:40.505Z,62.50
2018-06-09T20:24:07.722Z,76.17
2018-06-09T20:26:34.936Z,50.23
2018-06-09T20:29:02.145Z,36.73
2018-06-09T20:31:29.401Z,27.00
2018-06-09T20:33:57.717Z,36.90
2018-06-09T20:36:24.926Z,95.60
2018-06-09T20:38:52.133Z,51.00
2018-06-09T20:41:19.342Z,40.10
2018-06-09T20:43:46.590Z,38.27
2018-06-09T20:46:13.842Z,34.30
2018-06-09T20:48:41.081Z,27.97
2018-06-09T20:51:08.313Z,27.10
2018-06-09T20:53:35.537Z,24.20
2018-06-09T20:56:02.825Z,27.50
2018-06-09T20:58:35.853Z,26.50
2018-06-09T21:01:03.110Z,26.80
2018-06-09T21:03:30.302Z,29.27
2018-06-09T21:05:57.593Z,28.00
2018-06-09T21:08:24.730Z,31.40
2018-06-09T21:10:51.950Z,32.80
2018-06-09T21:13:19.255Z,33.10
2018-06-09T21:15:46.448Z,32.00
2018-06-09T21:18:13.661Z,27.27
2018-06-09T21:20:40.885Z,25.60
2018-06-09T21:23:08.091Z,26.40
2018-06-09T21:25:35.301Z,29.13
2018-06-09T21:28:08.287Z,33.27
2018-06-09T21:30:41.919Z,42.97
2018-06-09T21:34:34.830Z,50.30
2018-06-09T21:37:07.685Z,45.67
2018-06-09T21:39:40.702Z,37.93
2018-06-09T21:42:13.622Z,37.43
2018-06-09T21:44:46.864Z,37.80
2018-06-09T21:47:14.926Z,40.43
2018-06-09T21:49:42.286Z,40.90
2018-06-09T21:52:09.498Z,43.10
2018-06-09T21:54:36.837Z,45.97
2018-06-09T21:57:04.148Z,50.23
2018-06-09T21:59:31.389Z,51.47
2018-06-09T22:02:00.457Z,50.47
2018-06-09T22:04:27.956Z,49.13
2018-06-09T22:06:55.167Z,51.63
2018-06-09T22:09:22.369Z,48.90
2018-06-09T22:11:49.564Z,52.50
2018-06-09T22:14:16.793Z,53.70
2018-06-09T22:16:44.140Z,52.30
2018-06-09T22:19:11.429Z,54.37
2018-06-09T22:21:38.654Z,47.77
2018-06-09T22:24:05.876Z,43.70
2018-06-09T22:26:33.104Z,46.70
2018-06-09T22:29:00.356Z,45.13
2018-06-09T22:31:27.559Z,40.33
2018-06-09T22:33:54.763Z,39.80
2018-06-09T22:36:21.983Z,40.40
2018-06-09T22:38:49.242Z,40.30
2018-06-09T22:41:16.473Z,41.67
2018-06-09T22:43:43.705Z,35.90
2018-06-09T22:46:10.971Z,37.50
2018-06-09T22:48:38.251Z,36.27
2018-06-09T22:51:05.494Z,37.40
2018-06-09T22:53:44.968Z,37.57
2018-06-09T22:56:12.646Z,34.60
2018-06-09T22:58:39.852Z,36.20
2018-06-09T23:01:07.086Z,36.27
2018-06-09T23:03:34.298Z,39.20
2018-06-09T23:06:01.514Z,38.27
2018-06-09T23:08:28.716Z,39.43
2018-06-09T23:10:55.929Z,41.47
2018-06-09T23:13:23.169Z,42.00
2018-06-09T23:15:50.378Z,41.17
2018-06-09T23:18:17.582Z,42.47
2018-06-09T23:20:44.787Z,45.53
2018-06-09T23:23:12.061Z,47.57
2018-06-09T23:25:39.274Z,47.10
2018-06-09T23:28:06.474Z,50.33
2018-06-09T23:30:33.739Z,51.10
2018-06-09T23:33:00.910Z,51.90
2018-06-09T23:35:28.120Z,52.20
2018-06-09T23:37:55.325Z,56.80
2018-06-09T23:40:22.541Z,58.50
2018-06-09T23:42:49.747Z,59.03
2018-06-09T23:45:16.952Z,60.00
2018-06-09T23:47:44.201Z,58.40
2018-06-09T23:50:11.421Z,59.40
2018-06-09T23:52:38.629Z,58.00
2018-06-09T23:55:05.848Z,63.70
2018-06-09T23:57:33.055Z,63.50
